This is the latest recevied weather packets stored in our database for station/object K0QJ. If no packets are shown the sender has not sent any weather packets the latest 1 day(s).
| Time | Temp. | Humidity | Pressure | Rain* | Wind** | Luminosity | Snow |
|---|---|---|---|---|---|---|---|
| 1836274784 | 20.56° C | 74% | 1015.5 hPa | 0 mm | 0 m/s | 0 W/m² | - |
| 1836274482 | 21.11° C | 73% | 1015.9 hPa | 0 mm | 0 m/s | 0 W/m² | - |
| 1836274336 | 20.56° C | 75% | 1015.9 hPa | 0 mm | 0 m/s | 0 W/m² | - |
| 1836274180 | 21.11° C | 73% | 1015.9 hPa | 0 mm | 0 m/s | 0 W/m² | - |
| 1836273874 | 21.11° C | 74% | 1015.5 hPa | 0 mm | 0 m/s | 0 W/m² | - |
| 1778039200 | 10° C | 78% | 1013.4 hPa | 0 mm | 0 m/s | 0 W/m² | - |
| 1778038898 | 10° C | 77% | 1013 hPa | 0 mm | 0 m/s | 0 W/m² | - |
| 1778038595 | 10° C | 77% | 1013 hPa | 0 mm | 0 m/s | 0 W/m² | - |
| 1778038292 | 10° C | 78% | 1012.7 hPa | 0 mm | 0 m/s | 0 W/m² | - |
| 1778037989 | 10° C | 79% | 1012.4 hPa | 0 mm | 0 m/s | 0 W/m² | - |
| 1778037686 | 10.56° C | 79% | 1012.7 hPa | 0 mm | 0 m/s | 0 W/m² | - |
| 1778037383 | 10.56° C | 80% | 1012.7 hPa | 0 mm | 0.45 m/s, 344° | 0 W/m² | - |
| 1778037080 | 10.56° C | 82% | 1012.5 hPa | 0 mm | 0 m/s | 0 W/m² | - |
| 1778036778 | 10.56° C | 83% | 1012.2 hPa | 0 mm | 0.45 m/s, 3° | 0 W/m² | - |
| 1778036475 | 10° C | 87% | 1012.2 hPa | 0 mm | 0.45 m/s, 359° | 0 W/m² | - |
| 1778036172 | 10° C | 90% | 1012.1 hPa | 0 mm | 0.45 m/s, 348° | 0 W/m² | - |
| 1778035868 | 10° C | 91% | 1011.9 hPa | 0 mm | 0 m/s | 0 W/m² | - |
| 1778035566 | 10° C | 91% | 1012.2 hPa | 0 mm | 0.45 m/s, 354° | 0 W/m² | - |
| 1778035262 | 10° C | 91% | 1011.8 hPa | 0 mm | 0 m/s | 0 W/m² | - |
| 1778034957 | 10° C | 91% | 1011.6 hPa | 0 mm | 0 m/s | 0 W/m² | - |
| 1778034655 | 10° C | 91% | 1011.7 hPa | 0 mm | 0 m/s | 0 W/m² | - |
| 1778034353 | 10° C | 91% | 1011.8 hPa | 0 mm | 0 m/s | 0 W/m² | - |
| 1778034050 | 9.44° C | 91% | 1011.7 hPa | 0 mm | 0 m/s | 0 W/m² | - |
| 1778033747 | 9.44° C | 91% | 1011.4 hPa | 0 mm | 0 m/s | 0 W/m² | - |
| 1778033444 | 9.44° C | 91% | 1011.5 hPa | 0 mm | 0 m/s | 0 W/m² | - |
* Rain latest hour (hover to see other rain measurements)
** Current wind speed in m/s (hover to see current wind gust speed)